sensor_id;sensor_type;location;lat;lon;timestamp;temperature;humidity
298;DHT22;133;49.626;9.680;2022-10-16T00:02:24;16.80;98.70
298;DHT22;133;49.626;9.680;2022-10-16T00:04:50;16.90;98.70
298;DHT22;133;49.626;9.680;2022-10-16T00:07:15;16.90;98.70
298;DHT22;133;49.626;9.680;2022-10-16T00:09:41;16.90;98.70
298;DHT22;133;49.626;9.680;2022-10-16T00:12:06;16.90;98.70
298;DHT22;133;49.626;9.680;2022-10-16T00:14:32;16.90;98.60
298;DHT22;133;49.626;9.680;2022-10-16T00:16:58;16.80;98.70
298;DHT22;133;49.626;9.680;2022-10-16T00:19:23;16.70;98.70
298;DHT22;133;49.626;9.680;2022-10-16T00:21:49;16.70;98.70
298;DHT22;133;49.626;9.680;2022-10-16T00:24:15;16.70;98.70
298;DHT22;133;49.626;9.680;2022-10-16T00:26:41;16.70;98.70
298;DHT22;133;49.626;9.680;2022-10-16T00:29:07;16.70;98.70
298;DHT22;133;49.626;9.680;2022-10-16T00:31:33;16.70;98.70
298;DHT22;133;49.626;9.680;2022-10-16T00:33:58;16.60;98.70
298;DHT22;133;49.626;9.680;2022-10-16T00:36:26;16.60;98.70
298;DHT22;133;49.626;9.680;2022-10-16T00:38:54;16.50;98.70
298;DHT22;133;49.626;9.680;2022-10-16T00:41:21;16.50;98.70
298;DHT22;133;49.626;9.680;2022-10-16T00:44:00;16.40;98.70
298;DHT22;133;49.626;9.680;2022-10-16T00:46:40;16.40;98.70
298;DHT22;133;49.626;9.680;2022-10-16T00:49:10;16.40;98.70
298;DHT22;133;49.626;9.680;2022-10-16T00:51:39;16.40;98.70
298;DHT22;133;49.626;9.680;2022-10-16T00:54:12;16.40;98.70
298;DHT22;133;49.626;9.680;2022-10-16T00:56:38;16.40;98.70
298;DHT22;133;49.626;9.680;2022-10-16T00:59:18;16.30;98.70
298;DHT22;133;49.626;9.680;2022-10-16T01:01:44;16.30;98.70
298;DHT22;133;49.626;9.680;2022-10-16T01:04:10;16.30;98.70
298;DHT22;133;49.626;9.680;2022-10-16T01:09:53;16.30;98.70
298;DHT22;133;49.626;9.680;2022-10-16T01:12:43;16.30;98.70
298;DHT22;133;49.626;9.680;2022-10-16T01:17:49;16.40;98.70
298;DHT22;133;49.626;9.680;2022-10-16T01:28:36;16.40;98.70
298;DHT22;133;49.626;9.680;2022-10-16T01:31:04;16.40;98.70
298;DHT22;133;49.626;9.680;2022-10-16T01:33:43;16.50;98.70
298;DHT22;133;49.626;9.680;2022-10-16T01:36:14;16.50;98.70
298;DHT22;133;49.626;9.680;2022-10-16T01:38:43;16.60;98.70
298;DHT22;133;49.626;9.680;2022-10-16T01:41:32;16.60;98.70
298;DHT22;133;49.626;9.680;2022-10-16T01:44:08;16.70;98.70
298;DHT22;133;49.626;9.680;2022-10-16T01:46:38;16.70;98.40
298;DHT22;133;49.626;9.680;2022-10-16T01:49:06;16.70;98.50
298;DHT22;133;49.626;9.680;2022-10-16T01:51:34;16.80;98.40
298;DHT22;133;49.626;9.680;2022-10-16T01:54:01;16.90;98.30
298;DHT22;133;49.626;9.680;2022-10-16T01:56:28;16.90;97.90
298;DHT22;133;49.626;9.680;2022-10-16T01:59:07;16.90;98.00
298;DHT22;133;49.626;9.680;2022-10-16T02:01:38;16.90;97.70
298;DHT22;133;49.626;9.680;2022-10-16T02:04:13;16.90;97.70
298;DHT22;133;49.626;9.680;2022-10-16T02:06:40;16.90;97.50
298;DHT22;133;49.626;9.680;2022-10-16T02:09:06;16.90;97.60
298;DHT22;133;49.626;9.680;2022-10-16T02:11:32;16.90;97.30
298;DHT22;133;49.626;9.680;2022-10-16T02:14:05;16.90;97.30
298;DHT22;133;49.626;9.680;2022-10-16T02:16:40;16.90;97.40
298;DHT22;133;49.626;9.680;2022-10-16T02:19:07;16.90;97.40
298;DHT22;133;49.626;9.680;2022-10-16T02:22:00;17.00;97.30
298;DHT22;133;49.626;9.680;2022-10-16T02:24:55;17.00;97.30
298;DHT22;133;49.626;9.680;2022-10-16T02:30:10;17.00;97.20
298;DHT22;133;49.626;9.680;2022-10-16T02:32:40;17.00;97.10
298;DHT22;133;49.626;9.680;2022-10-16T02:35:08;17.00;97.20
298;DHT22;133;49.626;9.680;2022-10-16T02:37:35;17.00;97.20
298;DHT22;133;49.626;9.680;2022-10-16T02:40:02;17.00;97.00
298;DHT22;133;49.626;9.680;2022-10-16T02:42:37;16.90;97.10
298;DHT22;133;49.626;9.680;2022-10-16T02:45:04;16.90;97.20
298;DHT22;133;49.626;9.680;2022-10-16T02:47:30;16.90;97.30
298;DHT22;133;49.626;9.680;2022-10-16T02:49:56;16.90;97.20
298;DHT22;133;49.626;9.680;2022-10-16T02:52:21;16.90;97.40
298;DHT22;133;49.626;9.680;2022-10-16T02:54:47;16.90;97.40
298;DHT22;133;49.626;9.680;2022-10-16T02:57:13;16.90;97.40
298;DHT22;133;49.626;9.680;2022-10-16T02:59:38;16.90;97.40
298;DHT22;133;49.626;9.680;2022-10-16T03:02:04;16.90;97.20
298;DHT22;133;49.626;9.680;2022-10-16T03:04:29;17.00;97.00
298;DHT22;133;49.626;9.680;2022-10-16T03:06:55;17.00;97.10
298;DHT22;133;49.626;9.680;2022-10-16T03:09:21;17.10;97.00
298;DHT22;133;49.626;9.680;2022-10-16T03:11:46;17.10;96.90
298;DHT22;133;49.626;9.680;2022-10-16T03:14:13;17.20;96.80
298;DHT22;133;49.626;9.680;2022-10-16T03:16:38;17.20;96.60
298;DHT22;133;49.626;9.680;2022-10-16T03:19:04;17.20;96.50
298;DHT22;133;49.626;9.680;2022-10-16T03:21:29;17.20;96.40
298;DHT22;133;49.626;9.680;2022-10-16T03:23:55;17.20;96.30
298;DHT22;133;49.626;9.680;2022-10-16T03:26:20;17.20;96.30
298;DHT22;133;49.626;9.680;2022-10-16T03:28:46;17.20;96.30
298;DHT22;133;49.626;9.680;2022-10-16T03:31:12;17.10;96.40
298;DHT22;133;49.626;9.680;2022-10-16T03:33:38;17.10;96.50
298;DHT22;133;49.626;9.680;2022-10-16T03:36:03;17.00;96.80
298;DHT22;133;49.626;9.680;2022-10-16T03:38:29;17.00;96.80
298;DHT22;133;49.626;9.680;2022-10-16T03:40:55;17.00;96.70
298;DHT22;133;49.626;9.680;2022-10-16T03:43:20;17.00;96.80
298;DHT22;133;49.626;9.680;2022-10-16T03:45:46;17.10;96.70
298;DHT22;133;49.626;9.680;2022-10-16T03:48:11;17.10;96.60
298;DHT22;133;49.626;9.680;2022-10-16T03:50:37;17.10;96.60
298;DHT22;133;49.626;9.680;2022-10-16T03:53:03;17.10;96.50
298;DHT22;133;49.626;9.680;2022-10-16T03:55:29;17.10;96.20
298;DHT22;133;49.626;9.680;2022-10-16T03:57:54;17.10;96.30
298;DHT22;133;49.626;9.680;2022-10-16T04:00:20;17.10;96.30
298;DHT22;133;49.626;9.680;2022-10-16T04:02:45;17.10;96.20
298;DHT22;133;49.626;9.680;2022-10-16T04:05:11;17.00;96.60
298;DHT22;133;49.626;9.680;2022-10-16T04:07:37;17.10;96.50
298;DHT22;133;49.626;9.680;2022-10-16T04:10:03;17.00;96.50
298;DHT22;133;49.626;9.680;2022-10-16T04:12:29;17.00;96.50
298;DHT22;133;49.626;9.680;2022-10-16T04:14:54;17.00;96.40
298;DHT22;133;49.626;9.680;2022-10-16T04:17:20;17.00;96.30
298;DHT22;133;49.626;9.680;2022-10-16T04:19:46;17.10;96.40
298;DHT22;133;49.626;9.680;2022-10-16T04:22:11;17.10;96.20
298;DHT22;133;49.626;9.680;2022-10-16T04:24:37;17.10;96.10
298;DHT22;133;49.626;9.680;2022-10-16T04:27:02;17.10;96.10
298;DHT22;133;49.626;9.680;2022-10-16T04:29:28;17.10;96.10
298;DHT22;133;49.626;9.680;2022-10-16T04:31:54;17.10;96.00
298;DHT22;133;49.626;9.680;2022-10-16T04:34:20;17.10;96.00
298;DHT22;133;49.626;9.680;2022-10-16T04:36:47;17.20;96.10
298;DHT22;133;49.626;9.680;2022-10-16T04:39:14;17.20;95.80
298;DHT22;133;49.626;9.680;2022-10-16T04:41:40;17.20;95.90
298;DHT22;133;49.626;9.680;2022-10-16T04:44:06;17.10;95.80
298;DHT22;133;49.626;9.680;2022-10-16T04:46:31;17.10;95.70
298;DHT22;133;49.626;9.680;2022-10-16T04:48:57;17.10;95.70
298;DHT22;133;49.626;9.680;2022-10-16T04:51:23;17.00;95.90
298;DHT22;133;49.626;9.680;2022-10-16T04:53:48;17.00;96.10
298;DHT22;133;49.626;9.680;2022-10-16T04:56:14;17.00;96.20
298;DHT22;133;49.626;9.680;2022-10-16T04:58:40;17.00;96.30
298;DHT22;133;49.626;9.680;2022-10-16T05:01:06;16.90;96.40
298;DHT22;133;49.626;9.680;2022-10-16T05:03:32;17.00;96.40
298;DHT22;133;49.626;9.680;2022-10-16T05:05:57;17.00;96.30
298;DHT22;133;49.626;9.680;2022-10-16T05:08:23;17.00;96.30
298;DHT22;133;49.626;9.680;2022-10-16T05:10:49;17.00;96.30
298;DHT22;133;49.626;9.680;2022-10-16T05:13:14;17.00;96.30
298;DHT22;133;49.626;9.680;2022-10-16T05:15:40;17.00;96.00
298;DHT22;133;49.626;9.680;2022-10-16T05:18:05;17.00;96.30
298;DHT22;133;49.626;9.680;2022-10-16T05:20:31;17.10;96.10
298;DHT22;133;49.626;9.680;2022-10-16T05:22:57;17.10;96.00
298;DHT22;133;49.626;9.680;2022-10-16T05:25:22;17.10;95.90
298;DHT22;133;49.626;9.680;2022-10-16T05:27:49;17.10;95.80
298;DHT22;133;49.626;9.680;2022-10-16T05:30:16;17.20;95.70
298;DHT22;133;49.626;9.680;2022-10-16T05:32:41;17.10;95.70
298;DHT22;133;49.626;9.680;2022-10-16T05:35:07;17.20;95.70
298;DHT22;133;49.626;9.680;2022-10-16T05:37:33;17.10;95.70
298;DHT22;133;49.626;9.680;2022-10-16T05:39:58;17.20;95.70
298;DHT22;133;49.626;9.680;2022-10-16T05:42:24;17.10;95.70
298;DHT22;133;49.626;9.680;2022-10-16T05:44:49;17.10;95.70
298;DHT22;133;49.626;9.680;2022-10-16T05:47:15;17.10;95.80
298;DHT22;133;49.626;9.680;2022-10-16T05:49:40;17.00;96.10
298;DHT22;133;49.626;9.680;2022-10-16T05:52:06;17.00;96.10
298;DHT22;133;49.626;9.680;2022-10-16T05:54:32;17.00;96.10
298;DHT22;133;49.626;9.680;2022-10-16T05:56:57;17.00;96.10
298;DHT22;133;49.626;9.680;2022-10-16T05:59:23;16.90;96.20
298;DHT22;133;49.626;9.680;2022-10-16T06:01:48;16.90;96.20
298;DHT22;133;49.626;9.680;2022-10-16T06:04:14;16.90;96.50
298;DHT22;133;49.626;9.680;2022-10-16T06:06:40;16.90;96.50
298;DHT22;133;49.626;9.680;2022-10-16T06:09:05;16.80;96.60
298;DHT22;133;49.626;9.680;2022-10-16T06:11:32;16.80;96.60
298;DHT22;133;49.626;9.680;2022-10-16T06:14:00;16.80;96.80
298;DHT22;133;49.626;9.680;2022-10-16T06:16:36;16.80;96.90
298;DHT22;133;49.626;9.680;2022-10-16T06:19:03;16.80;97.00
298;DHT22;133;49.626;9.680;2022-10-16T06:21:31;16.80;97.10
298;DHT22;133;49.626;9.680;2022-10-16T06:23:58;16.80;97.10
298;DHT22;133;49.626;9.680;2022-10-16T06:26:26;16.80;97.10
298;DHT22;133;49.626;9.680;2022-10-16T06:28:54;16.80;97.10
298;DHT22;133;49.626;9.680;2022-10-16T06:31:20;16.80;97.20
298;DHT22;133;49.626;9.680;2022-10-16T06:33:50;16.80;97.20
298;DHT22;133;49.626;9.680;2022-10-16T06:36:16;16.80;97.00
298;DHT22;133;49.626;9.680;2022-10-16T06:38:43;16.80;97.10
298;DHT22;133;49.626;9.680;2022-10-16T06:41:12;16.80;96.90
298;DHT22;133;49.626;9.680;2022-10-16T06:43:38;16.80;96.80
298;DHT22;133;49.626;9.680;2022-10-16T06:46:05;16.90;96.60
298;DHT22;133;49.626;9.680;2022-10-16T06:48:33;17.00;96.60
298;DHT22;133;49.626;9.680;2022-10-16T06:51:05;17.00;96.30
298;DHT22;133;49.626;9.680;2022-10-16T06:53:36;17.10;96.20
298;DHT22;133;49.626;9.680;2022-10-16T06:56:16;17.20;96.10
298;DHT22;133;49.626;9.680;2022-10-16T06:58:42;17.20;96.00
298;DHT22;133;49.626;9.680;2022-10-16T07:01:09;17.20;95.90
298;DHT22;133;49.626;9.680;2022-10-16T07:03:43;17.20;95.70
298;DHT22;133;49.626;9.680;2022-10-16T07:06:11;17.20;95.70
298;DHT22;133;49.626;9.680;2022-10-16T07:08:39;17.10;95.50
298;DHT22;133;49.626;9.680;2022-10-16T07:11:07;17.10;95.60
298;DHT22;133;49.626;9.680;2022-10-16T07:13:37;17.10;95.60
298;DHT22;133;49.626;9.680;2022-10-16T07:16:14;17.10;95.80
298;DHT22;133;49.626;9.680;2022-10-16T07:18:40;17.10;95.90
298;DHT22;133;49.626;9.680;2022-10-16T07:21:10;17.10;96.00
298;DHT22;133;49.626;9.680;2022-10-16T07:23:36;17.20;96.00
298;DHT22;133;49.626;9.680;2022-10-16T07:26:03;17.30;95.80
298;DHT22;133;49.626;9.680;2022-10-16T07:28:28;17.40;95.80
298;DHT22;133;49.626;9.680;2022-10-16T07:30:54;17.40;95.70
298;DHT22;133;49.626;9.680;2022-10-16T07:33:21;17.50;95.70
298;DHT22;133;49.626;9.680;2022-10-16T07:35:53;17.50;95.70
298;DHT22;133;49.626;9.680;2022-10-16T07:38:20;17.60;95.60
298;DHT22;133;49.626;9.680;2022-10-16T07:40:46;17.70;95.40
298;DHT22;133;49.626;9.680;2022-10-16T07:43:12;17.70;95.40
298;DHT22;133;49.626;9.680;2022-10-16T07:45:45;17.70;95.30
298;DHT22;133;49.626;9.680;2022-10-16T07:48:11;17.80;95.20
298;DHT22;133;49.626;9.680;2022-10-16T07:50:37;17.80;95.10
298;DHT22;133;49.626;9.680;2022-10-16T07:53:03;17.90;95.10
298;DHT22;133;49.626;9.680;2022-10-16T07:55:28;17.90;95.10
298;DHT22;133;49.626;9.680;2022-10-16T07:57:54;17.90;95.10
298;DHT22;133;49.626;9.680;2022-10-16T08:00:20;18.00;95.20
298;DHT22;133;49.626;9.680;2022-10-16T08:02:45;18.10;95.20
298;DHT22;133;49.626;9.680;2022-10-16T08:05:11;18.10;95.20
298;DHT22;133;49.626;9.680;2022-10-16T08:07:36;18.20;95.00
298;DHT22;133;49.626;9.680;2022-10-16T08:10:02;18.30;94.30
298;DHT22;133;49.626;9.680;2022-10-16T08:12:28;18.40;94.20
298;DHT22;133;49.626;9.680;2022-10-16T08:14:54;18.50;93.70
298;DHT22;133;49.626;9.680;2022-10-16T08:17:19;18.50;93.40
298;DHT22;133;49.626;9.680;2022-10-16T08:19:46;18.60;93.10
298;DHT22;133;49.626;9.680;2022-10-16T08:22:13;18.60;93.20
298;DHT22;133;49.626;9.680;2022-10-16T08:24:39;18.60;93.00
298;DHT22;133;49.626;9.680;2022-10-16T08:27:04;18.60;92.90
298;DHT22;133;49.626;9.680;2022-10-16T08:29:30;18.60;92.90
298;DHT22;133;49.626;9.680;2022-10-16T08:31:56;18.70;92.90
298;DHT22;133;49.626;9.680;2022-10-16T08:34:21;18.80;93.00
298;DHT22;133;49.626;9.680;2022-10-16T08:36:47;18.90;92.90
298;DHT22;133;49.626;9.680;2022-10-16T08:39:13;19.00;92.60
298;DHT22;133;49.626;9.680;2022-10-16T08:50:31;19.30;92.00
298;DHT22;133;49.626;9.680;2022-10-16T08:52:58;19.40;92.00
298;DHT22;133;49.626;9.680;2022-10-16T08:57:59;19.60;91.70
298;DHT22;133;49.626;9.680;2022-10-16T09:00:26;19.70;91.50
298;DHT22;133;49.626;9.680;2022-10-16T09:11:41;20.10;89.70
298;DHT22;133;49.626;9.680;2022-10-16T09:20:25;20.30;88.40
298;DHT22;133;49.626;9.680;2022-10-16T09:25:31;20.20;87.60
298;DHT22;133;49.626;9.680;2022-10-16T09:27:58;20.20;87.70
298;DHT22;133;49.626;9.680;2022-10-16T09:30:27;20.10;87.80
298;DHT22;133;49.626;9.680;2022-10-16T09:32:55;20.10;88.00
298;DHT22;133;49.626;9.680;2022-10-16T09:35:31;20.20;88.30
298;DHT22;133;49.626;9.680;2022-10-16T09:37:58;20.20;88.40
298;DHT22;133;49.626;9.680;2022-10-16T09:40:30;20.20;88.50
298;DHT22;133;49.626;9.680;2022-10-16T09:46:05;20.20;88.80
298;DHT22;133;49.626;9.680;2022-10-16T09:48:44;20.20;88.90
298;DHT22;133;49.626;9.680;2022-10-16T09:51:33;20.10;89.10
298;DHT22;133;49.626;9.680;2022-10-16T09:59:52;20.30;89.20
298;DHT22;133;49.626;9.680;2022-10-16T10:02:31;20.30;89.30
298;DHT22;133;49.626;9.680;2022-10-16T10:05:05;20.40;89.10
298;DHT22;133;49.626;9.680;2022-10-16T10:07:43;20.60;88.20
298;DHT22;133;49.626;9.680;2022-10-16T10:10:43;20.70;88.10
298;DHT22;133;49.626;9.680;2022-10-16T10:13:22;21.00;88.00
298;DHT22;133;49.626;9.680;2022-10-16T10:15:48;21.30;87.60
298;DHT22;133;49.626;9.680;2022-10-16T10:18:18;21.20;85.70
298;DHT22;133;49.626;9.680;2022-10-16T10:20:45;20.70;88.30
298;DHT22;133;49.626;9.680;2022-10-16T10:23:22;20.30;90.30
298;DHT22;133;49.626;9.680;2022-10-16T10:31:30;19.50;94.10
298;DHT22;133;49.626;9.680;2022-10-16T10:37:04;19.70;95.40
298;DHT22;133;49.626;9.680;2022-10-16T10:39:48;19.90;94.10
298;DHT22;133;49.626;9.680;2022-10-16T10:42:42;20.10;94.00
298;DHT22;133;49.626;9.680;2022-10-16T10:45:26;20.30;92.70
298;DHT22;133;49.626;9.680;2022-10-16T10:47:58;20.50;91.00
298;DHT22;133;49.626;9.680;2022-10-16T10:50:37;20.60;90.30
298;DHT22;133;49.626;9.680;2022-10-16T10:55:48;20.60;89.70
298;DHT22;133;49.626;9.680;2022-10-16T11:01:10;20.60;90.10
298;DHT22;133;49.626;9.680;2022-10-16T11:06:57;20.90;90.30
298;DHT22;133;49.626;9.680;2022-10-16T11:09:33;21.20;89.40
298;DHT22;133;49.626;9.680;2022-10-16T11:12:15;21.60;86.90
298;DHT22;133;49.626;9.680;2022-10-16T11:15:15;22.50;83.40
298;DHT22;133;49.626;9.680;2022-10-16T11:20:42;23.60;81.60
298;DHT22;133;49.626;9.680;2022-10-16T11:23:16;24.20;80.90
298;DHT22;133;49.626;9.680;2022-10-16T11:25:45;25.10;78.50
298;DHT22;133;49.626;9.680;2022-10-16T11:28:15;25.70;76.20
298;DHT22;133;49.626;9.680;2022-10-16T11:37:26;26.80;71.20
298;DHT22;133;49.626;9.680;2022-10-16T11:39:47;27.00;71.70
298;DHT22;133;49.626;9.680;2022-10-16T11:42:41;27.60;71.40
298;DHT22;133;49.626;9.680;2022-10-16T11:45:36;28.20;70.00
298;DHT22;133;49.626;9.680;2022-10-16T11:48:53;28.90;67.90
298;DHT22;133;49.626;9.680;2022-10-16T11:51:47;29.00;68.10
298;DHT22;133;49.626;9.680;2022-10-16T11:57:39;29.70;65.70
298;DHT22;133;49.626;9.680;2022-10-16T12:14:18;30.70;62.20
298;DHT22;133;49.626;9.680;2022-10-16T12:43:44;31.10;59.30
298;DHT22;133;49.626;9.680;2022-10-16T12:48:41;29.60;61.10
298;DHT22;133;49.626;9.680;2022-10-16T12:51:40;29.00;62.90
298;DHT22;133;49.626;9.680;2022-10-16T13:09:16;28.10;63.20
298;DHT22;133;49.626;9.680;2022-10-16T13:11:55;28.30;62.90
298;DHT22;133;49.626;9.680;2022-10-16T13:17:04;27.40;63.90
298;DHT22;133;49.626;9.680;2022-10-16T13:22:51;27.60;64.50
298;DHT22;133;49.626;9.680;2022-10-16T13:25:38;27.50;63.10
298;DHT22;133;49.626;9.680;2022-10-16T13:28:08;27.00;65.10
298;DHT22;133;49.626;9.680;2022-10-16T13:30:53;26.20;66.90
298;DHT22;133;49.626;9.680;2022-10-16T13:33:34;25.80;67.30
298;DHT22;133;49.626;9.680;2022-10-16T13:36:04;25.40;67.60
298;DHT22;133;49.626;9.680;2022-10-16T13:38:33;25.00;69.70
298;DHT22;133;49.626;9.680;2022-10-16T13:41:01;24.80;69.40
298;DHT22;133;49.626;9.680;2022-10-16T13:43:42;24.80;70.60
298;DHT22;133;49.626;9.680;2022-10-16T13:46:17;24.50;70.90
298;DHT22;133;49.626;9.680;2022-10-16T13:49:10;24.20;71.90
298;DHT22;133;49.626;9.680;2022-10-16T13:51:37;23.90;72.60
298;DHT22;133;49.626;9.680;2022-10-16T13:54:03;23.80;72.70
298;DHT22;133;49.626;9.680;2022-10-16T13:56:31;23.70;72.90
298;DHT22;133;49.626;9.680;2022-10-16T13:59:06;23.50;73.50
298;DHT22;133;49.626;9.680;2022-10-16T14:01:35;23.20;74.40
298;DHT22;133;49.626;9.680;2022-10-16T14:04:08;23.10;75.00
298;DHT22;133;49.626;9.680;2022-10-16T14:06:35;23.10;75.10
298;DHT22;133;49.626;9.680;2022-10-16T14:09:06;23.10;75.30
298;DHT22;133;49.626;9.680;2022-10-16T14:11:33;23.10;75.70
298;DHT22;133;49.626;9.680;2022-10-16T14:14:21;23.20;75.70
298;DHT22;133;49.626;9.680;2022-10-16T14:17:36;23.20;76.10
298;DHT22;133;49.626;9.680;2022-10-16T14:19:37;23.20;75.90
298;DHT22;133;49.626;9.680;2022-10-16T14:22:25;23.20;75.90
298;DHT22;133;49.626;9.680;2022-10-16T14:24:52;23.20;75.90
298;DHT22;133;49.626;9.680;2022-10-16T14:30:13;23.10;76.80
298;DHT22;133;49.626;9.680;2022-10-16T14:32:41;23.00;76.20
298;DHT22;133;49.626;9.680;2022-10-16T14:35:26;23.00;76.40
298;DHT22;133;49.626;9.680;2022-10-16T14:37:54;22.90;76.60
298;DHT22;133;49.626;9.680;2022-10-16T14:40:33;22.80;77.00
298;DHT22;133;49.626;9.680;2022-10-16T14:43:00;22.80;77.30
298;DHT22;133;49.626;9.680;2022-10-16T14:45:41;22.70;77.70
298;DHT22;133;49.626;9.680;2022-10-16T14:48:17;22.70;77.90
298;DHT22;133;49.626;9.680;2022-10-16T14:50:44;22.60;78.20
298;DHT22;133;49.626;9.680;2022-10-16T14:53:14;22.50;78.70
298;DHT22;133;49.626;9.680;2022-10-16T14:55:41;22.40;78.90
298;DHT22;133;49.626;9.680;2022-10-16T14:58:16;22.40;79.20
298;DHT22;133;49.626;9.680;2022-10-16T15:00:43;22.40;79.40
298;DHT22;133;49.626;9.680;2022-10-16T15:03:09;22.40;79.60
298;DHT22;133;49.626;9.680;2022-10-16T15:05:35;22.40;79.60
298;DHT22;133;49.626;9.680;2022-10-16T15:08:00;22.20;79.70
298;DHT22;133;49.626;9.680;2022-10-16T15:10:27;22.10;80.00
298;DHT22;133;49.626;9.680;2022-10-16T15:12:54;22.10;80.20
298;DHT22;133;49.626;9.680;2022-10-16T15:17:50;22.00;80.20
298;DHT22;133;49.626;9.680;2022-10-16T15:20:19;22.00;80.40
298;DHT22;133;49.626;9.680;2022-10-16T15:22:45;21.90;80.80
298;DHT22;133;49.626;9.680;2022-10-16T15:28:08;21.90;81.50
298;DHT22;133;49.626;9.680;2022-10-16T15:30:36;21.90;82.10
298;DHT22;133;49.626;9.680;2022-10-16T15:33:03;21.90;82.70
298;DHT22;133;49.626;9.680;2022-10-16T15:35:29;21.80;83.00
298;DHT22;133;49.626;9.680;2022-10-16T15:37:55;21.80;83.20
298;DHT22;133;49.626;9.680;2022-10-16T15:40:21;21.70;83.40
298;DHT22;133;49.626;9.680;2022-10-16T15:42:48;21.70;83.90
298;DHT22;133;49.626;9.680;2022-10-16T15:45:14;21.60;83.70
298;DHT22;133;49.626;9.680;2022-10-16T15:47:41;21.60;83.80
298;DHT22;133;49.626;9.680;2022-10-16T15:50:08;21.50;83.60
298;DHT22;133;49.626;9.680;2022-10-16T15:52:34;21.40;83.70
298;DHT22;133;49.626;9.680;2022-10-16T15:55:00;21.40;83.60
298;DHT22;133;49.626;9.680;2022-10-16T15:57:28;21.40;83.70
298;DHT22;133;49.626;9.680;2022-10-16T15:59:57;21.30;83.80
298;DHT22;133;49.626;9.680;2022-10-16T16:02:23;21.20;84.30
298;DHT22;133;49.626;9.680;2022-10-16T16:04:48;21.20;84.20
298;DHT22;133;49.626;9.680;2022-10-16T16:07:14;21.20;84.20
298;DHT22;133;49.626;9.680;2022-10-16T16:09:40;21.20;83.70
298;DHT22;133;49.626;9.680;2022-10-16T16:12:06;21.10;83.30
298;DHT22;133;49.626;9.680;2022-10-16T16:14:31;21.10;83.20
298;DHT22;133;49.626;9.680;2022-10-16T16:16:57;21.10;83.20
298;DHT22;133;49.626;9.680;2022-10-16T16:19:23;21.10;83.20
298;DHT22;133;49.626;9.680;2022-10-16T16:21:49;21.10;83.30
298;DHT22;133;49.626;9.680;2022-10-16T16:24:15;21.10;83.00
298;DHT22;133;49.626;9.680;2022-10-16T16:26:41;21.10;83.10
298;DHT22;133;49.626;9.680;2022-10-16T16:29:13;21.10;83.10
298;DHT22;133;49.626;9.680;2022-10-16T16:31:40;21.00;83.70
298;DHT22;133;49.626;9.680;2022-10-16T16:34:07;21.00;84.30
298;DHT22;133;49.626;9.680;2022-10-16T16:36:33;20.90;84.60
298;DHT22;133;49.626;9.680;2022-10-16T16:38:59;20.90;84.70
298;DHT22;133;49.626;9.680;2022-10-16T16:41:45;20.80;84.70
298;DHT22;133;49.626;9.680;2022-10-16T16:44:28;20.70;85.10
298;DHT22;133;49.626;9.680;2022-10-16T16:46:53;20.60;85.60
298;DHT22;133;49.626;9.680;2022-10-16T16:49:20;20.50;86.10
298;DHT22;133;49.626;9.680;2022-10-16T16:51:45;20.40;86.50
298;DHT22;133;49.626;9.680;2022-10-16T16:54:11;20.30;87.00
298;DHT22;133;49.626;9.680;2022-10-16T16:56:38;20.20;87.40
298;DHT22;133;49.626;9.680;2022-10-16T16:59:04;20.00;88.10
298;DHT22;133;49.626;9.680;2022-10-16T17:01:30;19.90;88.40
298;DHT22;133;49.626;9.680;2022-10-16T17:03:58;19.80;88.80
298;DHT22;133;49.626;9.680;2022-10-16T17:06:27;19.70;88.80
298;DHT22;133;49.626;9.680;2022-10-16T17:08:53;19.60;89.20
298;DHT22;133;49.626;9.680;2022-10-16T17:11:21;19.50;89.20
298;DHT22;133;49.626;9.680;2022-10-16T17:13:48;19.50;89.40
298;DHT22;133;49.626;9.680;2022-10-16T17:16:15;19.40;89.50
298;DHT22;133;49.626;9.680;2022-10-16T17:18:41;19.30;89.90
298;DHT22;133;49.626;9.680;2022-10-16T17:21:09;19.10;90.70
298;DHT22;133;49.626;9.680;2022-10-16T17:23:36;19.00;90.80
298;DHT22;133;49.626;9.680;2022-10-16T17:26:12;19.00;90.80
298;DHT22;133;49.626;9.680;2022-10-16T17:28:38;18.90;91.00
298;DHT22;133;49.626;9.680;2022-10-16T17:31:13;18.60;91.80
298;DHT22;133;49.626;9.680;2022-10-16T17:33:40;18.60;91.80
298;DHT22;133;49.626;9.680;2022-10-16T17:36:07;18.60;91.70
298;DHT22;133;49.626;9.680;2022-10-16T17:38:33;18.60;91.60
298;DHT22;133;49.626;9.680;2022-10-16T17:41:13;18.50;91.70
298;DHT22;133;49.626;9.680;2022-10-16T17:43:39;18.40;92.10
298;DHT22;133;49.626;9.680;2022-10-16T17:46:05;18.30;92.50
298;DHT22;133;49.626;9.680;2022-10-16T17:48:31;18.20;92.70
298;DHT22;133;49.626;9.680;2022-10-16T17:51:03;18.20;92.70
298;DHT22;133;49.626;9.680;2022-10-16T17:53:29;18.10;92.70
298;DHT22;133;49.626;9.680;2022-10-16T17:55:55;18.10;92.80
298;DHT22;133;49.626;9.680;2022-10-16T17:58:23;18.00;92.80
298;DHT22;133;49.626;9.680;2022-10-16T18:00:49;17.90;93.10
298;DHT22;133;49.626;9.680;2022-10-16T18:03:15;17.80;93.20
298;DHT22;133;49.626;9.680;2022-10-16T18:05:40;17.80;93.20
298;DHT22;133;49.626;9.680;2022-10-16T18:08:06;17.80;93.30
298;DHT22;133;49.626;9.680;2022-10-16T18:10:32;17.80;93.30
298;DHT22;133;49.626;9.680;2022-10-16T18:12:57;17.70;93.40
298;DHT22;133;49.626;9.680;2022-10-16T18:15:23;17.60;93.60
298;DHT22;133;49.626;9.680;2022-10-16T18:17:49;17.50;94.10
298;DHT22;133;49.626;9.680;2022-10-16T18:20:14;17.50;93.90
298;DHT22;133;49.626;9.680;2022-10-16T18:22:40;17.50;94.00
298;DHT22;133;49.626;9.680;2022-10-16T18:25:06;17.50;94.30
298;DHT22;133;49.626;9.680;2022-10-16T18:27:32;17.50;94.20
298;DHT22;133;49.626;9.680;2022-10-16T18:29:58;17.40;94.00
298;DHT22;133;49.626;9.680;2022-10-16T18:32:25;17.40;94.00
298;DHT22;133;49.626;9.680;2022-10-16T18:34:51;17.30;93.80
298;DHT22;133;49.626;9.680;2022-10-16T18:37:17;17.30;94.10
298;DHT22;133;49.626;9.680;2022-10-16T18:39:47;17.20;94.40
298;DHT22;133;49.626;9.680;2022-10-16T18:42:14;17.10;94.60
298;DHT22;133;49.626;9.680;2022-10-16T18:44:40;17.10;94.80
298;DHT22;133;49.626;9.680;2022-10-16T18:47:05;17.10;95.10
298;DHT22;133;49.626;9.680;2022-10-16T18:49:31;17.10;95.00
298;DHT22;133;49.626;9.680;2022-10-16T18:51:57;17.10;95.00
298;DHT22;133;49.626;9.680;2022-10-16T18:54:23;17.10;94.90
298;DHT22;133;49.626;9.680;2022-10-16T18:56:52;17.00;94.90
298;DHT22;133;49.626;9.680;2022-10-16T18:59:18;17.00;95.10
298;DHT22;133;49.626;9.680;2022-10-16T19:01:44;17.00;95.10
298;DHT22;133;49.626;9.680;2022-10-16T19:04:11;16.90;95.10
298;DHT22;133;49.626;9.680;2022-10-16T19:06:43;16.90;95.10
298;DHT22;133;49.626;9.680;2022-10-16T19:09:09;16.90;95.10
298;DHT22;133;49.626;9.680;2022-10-16T19:11:35;16.90;95.10
298;DHT22;133;49.626;9.680;2022-10-16T19:14:01;16.90;95.40
298;DHT22;133;49.626;9.680;2022-10-16T19:16:32;16.90;95.50
298;DHT22;133;49.626;9.680;2022-10-16T19:18:59;16.80;95.60
298;DHT22;133;49.626;9.680;2022-10-16T19:21:27;16.80;96.00
298;DHT22;133;49.626;9.680;2022-10-16T19:23:55;16.80;96.40
298;DHT22;133;49.626;9.680;2022-10-16T19:26:22;16.80;96.50